sensor_id;sensor_type;location;lat;lon;timestamp;pressure;altitude;pressure_sealevel;temperature;humidity
54856;BME280;40748;53.168;5.800;2023-01-26T00:01:34;102478.34;;;2.35;100.00
54856;BME280;40748;53.168;5.800;2023-01-26T00:04:04;102479.24;;;2.37;100.00
54856;BME280;40748;53.168;5.800;2023-01-26T00:06:34;102483.63999999998;;;2.43;100.00
54856;BME280;40748;53.168;5.800;2023-01-26T00:09:04;102483.31000000001;;;2.34;100.00
54856;BME280;40748;53.168;5.800;2023-01-26T00:11:34;102481.56;;;2.36;100.00
54856;BME280;40748;53.168;5.800;2023-01-26T00:16:34;102476.45999999999;;;2.40;100.00
54856;BME280;40748;53.168;5.800;2023-01-26T00:19:04;102473.11;;;2.42;100.00
54856;BME280;40748;53.168;5.800;2023-01-26T00:21:34;102471.88;;;2.37;100.00
54856;BME280;40748;53.168;5.800;2023-01-26T00:24:05;102468.40999999999;;;2.42;100.00
54856;BME280;40748;53.168;5.800;2023-01-26T00:26:34;102464.18000000001;;;2.41;100.00
54856;BME280;40748;53.168;5.800;2023-01-26T00:29:04;102464.73000000001;;;2.43;100.00
54856;BME280;40748;53.168;5.800;2023-01-26T00:31:34;102459.86;;;2.45;100.00
54856;BME280;40748;53.168;5.800;2023-01-26T00:34:04;102457.62999999999;;;2.49;100.00
54856;BME280;40748;53.168;5.800;2023-01-26T00:36:34;102456.70999999999;;;2.48;100.00
54856;BME280;40748;53.168;5.800;2023-01-26T00:39:04;102456.29;;;2.45;100.00
54856;BME280;40748;53.168;5.800;2023-01-26T00:41:34;102456.04000000001;;;2.48;100.00
54856;BME280;40748;53.168;5.800;2023-01-26T00:44:05;102458.18999999999;;;2.50;100.00
54856;BME280;40748;53.168;5.800;2023-01-26T00:51:34;102450.18;;;2.51;100.00
54856;BME280;40748;53.168;5.800;2023-01-26T00:56:34;102442.29000000001;;;2.50;100.00
54856;BME280;40748;53.168;5.800;2023-01-26T00:59:04;102443.09000000001;;;2.54;100.00
54856;BME280;40748;53.168;5.800;2023-01-26T01:01:34;102441.47;;;2.53;100.00
54856;BME280;40748;53.168;5.800;2023-01-26T01:04:05;102443.51;;;2.55;100.00
54856;BME280;40748;53.168;5.800;2023-01-26T01:06:35;102442.76999999999;;;2.56;100.00
54856;BME280;40748;53.168;5.800;2023-01-26T01:09:04;102444.68;;;2.60;100.00
54856;BME280;40748;53.168;5.800;2023-01-26T01:11:34;102446.55;;;2.63;100.00
54856;BME280;40748;53.168;5.800;2023-01-26T01:14:04;102448.0;;;2.66;100.00
54856;BME280;40748;53.168;5.800;2023-01-26T01:16:34;102453.31000000001;;;2.67;100.00
54856;BME280;40748;53.168;5.800;2023-01-26T01:19:04;102454.0;;;2.63;100.00
54856;BME280;40748;53.168;5.800;2023-01-26T01:21:34;102449.0;;;2.57;100.00
54856;BME280;40748;53.168;5.800;2023-01-26T01:24:05;102451.09999999999;;;2.62;100.00
54856;BME280;40748;53.168;5.800;2023-01-26T01:26:34;102457.19999999998;;;2.65;100.00
54856;BME280;40748;53.168;5.800;2023-01-26T01:29:05;102465.20000000001;;;2.63;100.00
54856;BME280;40748;53.168;5.800;2023-01-26T01:31:34;102461.34;;;2.52;100.00
54856;BME280;40748;53.168;5.800;2023-01-26T01:34:04;102457.15;;;2.51;100.00
54856;BME280;40748;53.168;5.800;2023-01-26T01:36:34;102463.12000000001;;;2.62;100.00
54856;BME280;40748;53.168;5.800;2023-01-26T01:39:04;102467.37000000001;;;2.65;100.00
54856;BME280;40748;53.168;5.800;2023-01-26T01:41:35;102467.48999999999;;;2.66;100.00
54856;BME280;40748;53.168;5.800;2023-01-26T01:44:13;102468.82;;;2.71;100.00
54856;BME280;40748;53.168;5.800;2023-01-26T01:46:34;102464.83;;;2.72;100.00
54856;BME280;40748;53.168;5.800;2023-01-26T01:49:05;102463.46;;;2.76;100.00
54856;BME280;40748;53.168;5.800;2023-01-26T01:51:35;102465.62;;;2.78;100.00
54856;BME280;40748;53.168;5.800;2023-01-26T01:56:34;102464.22;;;2.79;100.00
54856;BME280;40748;53.168;5.800;2023-01-26T01:59:04;102464.45000000001;;;2.82;100.00
54856;BME280;40748;53.168;5.800;2023-01-26T02:01:34;102470.23;;;2.75;100.00
54856;BME280;40748;53.168;5.800;2023-01-26T02:04:04;102460.54999999999;;;2.76;100.00
54856;BME280;40748;53.168;5.800;2023-01-26T02:06:37;102453.81;;;2.77;100.00
54856;BME280;40748;53.168;5.800;2023-01-26T02:09:04;102453.81;;;2.74;100.00
54856;BME280;40748;53.168;5.800;2023-01-26T02:11:35;102464.67;;;2.78;100.00
54856;BME280;40748;53.168;5.800;2023-01-26T02:14:05;102471.72;;;2.82;100.00
54856;BME280;40748;53.168;5.800;2023-01-26T02:16:34;102466.81000000001;;;2.78;100.00
54856;BME280;40748;53.168;5.800;2023-01-26T02:21:34;102457.76000000001;;;2.83;100.00
54856;BME280;40748;53.168;5.800;2023-01-26T02:24:06;102456.70999999999;;;2.80;100.00
54856;BME280;40748;53.168;5.800;2023-01-26T02:26:35;102455.58000000002;;;2.85;100.00
54856;BME280;40748;53.168;5.800;2023-01-26T02:29:05;102459.48000000001;;;2.87;100.00
54856;BME280;40748;53.168;5.800;2023-01-26T02:31:35;102455.07;;;2.89;100.00
54856;BME280;40748;53.168;5.800;2023-01-26T02:34:05;102457.5;;;2.91;100.00
54856;BME280;40748;53.168;5.800;2023-01-26T02:36:34;102462.56000000001;;;2.92;100.00
54856;BME280;40748;53.168;5.800;2023-01-26T02:39:15;102463.31;;;2.91;100.00
54856;BME280;40748;53.168;5.800;2023-01-26T02:41:34;102460.6;;;2.93;100.00
54856;BME280;40748;53.168;5.800;2023-01-26T02:44:06;102463.4;;;2.96;100.00
54856;BME280;40748;53.168;5.800;2023-01-26T02:46:34;102460.58;;;2.97;100.00
54856;BME280;40748;53.168;5.800;2023-01-26T02:49:04;102462.40000000001;;;2.98;100.00
54856;BME280;40748;53.168;5.800;2023-01-26T02:51:34;102462.40000000001;;;3.00;100.00
54856;BME280;40748;53.168;5.800;2023-01-26T02:54:04;102455.41;;;3.02;100.00
54856;BME280;40748;53.168;5.800;2023-01-26T02:56:34;102453.73999999999;;;3.03;100.00
54856;BME280;40748;53.168;5.800;2023-01-26T02:59:04;102455.16;;;3.05;100.00
54856;BME280;40748;53.168;5.800;2023-01-26T03:01:34;102451.9;;;3.06;100.00
54856;BME280;40748;53.168;5.800;2023-01-26T03:04:05;102449.84;;;3.08;100.00
54856;BME280;40748;53.168;5.800;2023-01-26T03:06:34;102448.52;;;3.10;100.00
54856;BME280;40748;53.168;5.800;2023-01-26T03:11:35;102449.06000000001;;;3.13;100.00
54856;BME280;40748;53.168;5.800;2023-01-26T03:14:04;102449.48999999999;;;3.15;100.00
54856;BME280;40748;53.168;5.800;2023-01-26T03:16:34;102449.4;;;3.17;100.00
54856;BME280;40748;53.168;5.800;2023-01-26T03:19:06;102450.12;;;3.20;100.00
54856;BME280;40748;53.168;5.800;2023-01-26T03:21:34;102452.37;;;3.22;100.00
54856;BME280;40748;53.168;5.800;2023-01-26T03:24:05;102455.07;;;3.25;100.00
54856;BME280;40748;53.168;5.800;2023-01-26T03:26:34;102455.53;;;3.27;100.00
54856;BME280;40748;53.168;5.800;2023-01-26T03:29:04;102457.7;;;3.29;100.00
54856;BME280;40748;53.168;5.800;2023-01-26T03:31:34;102453.25;;;3.31;100.00
54856;BME280;40748;53.168;5.800;2023-01-26T03:34:04;102451.79000000001;;;3.33;100.00
54856;BME280;40748;53.168;5.800;2023-01-26T03:36:34;102454.26;;;3.35;100.00
54856;BME280;40748;53.168;5.800;2023-01-26T03:39:04;102454.41;;;3.36;100.00
54856;BME280;40748;53.168;5.800;2023-01-26T03:41:34;102456.48000000001;;;3.39;100.00
54856;BME280;40748;53.168;5.800;2023-01-26T03:44:04;102460.38;;;3.40;100.00
54856;BME280;40748;53.168;5.800;2023-01-26T03:46:34;102456.36;;;3.41;100.00
54856;BME280;40748;53.168;5.800;2023-01-26T03:49:05;102455.86;;;3.44;100.00
54856;BME280;40748;53.168;5.800;2023-01-26T03:51:34;102450.56;;;3.47;100.00
54856;BME280;40748;53.168;5.800;2023-01-26T03:54:04;102448.6;;;3.49;100.00
54856;BME280;40748;53.168;5.800;2023-01-26T03:56:34;102447.53;;;3.50;100.00
54856;BME280;40748;53.168;5.800;2023-01-26T03:59:05;102444.15;;;3.51;100.00
54856;BME280;40748;53.168;5.800;2023-01-26T04:01:35;102444.15;;;3.53;100.00
54856;BME280;40748;53.168;5.800;2023-01-26T04:04:05;102450.07;;;3.54;100.00
54856;BME280;40748;53.168;5.800;2023-01-26T04:06:35;102451.07;;;3.55;100.00
54856;BME280;40748;53.168;5.800;2023-01-26T04:09:04;102447.62000000001;;;3.57;100.00
54856;BME280;40748;53.168;5.800;2023-01-26T04:11:35;102447.92;;;3.58;100.00
54856;BME280;40748;53.168;5.800;2023-01-26T04:14:04;102445.26000000001;;;3.60;100.00
54856;BME280;40748;53.168;5.800;2023-01-26T04:16:34;102446.98000000001;;;3.62;100.00
54856;BME280;40748;53.168;5.800;2023-01-26T04:19:04;102446.48;;;3.64;100.00
54856;BME280;40748;53.168;5.800;2023-01-26T04:21:34;102444.87;;;3.67;100.00
54856;BME280;40748;53.168;5.800;2023-01-26T04:24:05;102442.37000000001;;;3.71;100.00
54856;BME280;40748;53.168;5.800;2023-01-26T04:26:35;102442.36000000002;;;3.74;100.00
54856;BME280;40748;53.168;5.800;2023-01-26T04:29:06;102437.18;;;3.77;100.00
54856;BME280;40748;53.168;5.800;2023-01-26T04:31:35;102440.59;;;3.81;100.00
54856;BME280;40748;53.168;5.800;2023-01-26T04:34:05;102440.31;;;3.83;100.00
54856;BME280;40748;53.168;5.800;2023-01-26T04:36:35;102441.31999999999;;;3.87;100.00
54856;BME280;40748;53.168;5.800;2023-01-26T04:39:04;102436.67;;;3.91;100.00
54856;BME280;40748;53.168;5.800;2023-01-26T04:41:34;102436.01000000001;;;3.96;100.00
54856;BME280;40748;53.168;5.800;2023-01-26T04:44:05;102435.12000000001;;;4.01;100.00
54856;BME280;40748;53.168;5.800;2023-01-26T04:46:34;102435.12000000001;;;4.06;100.00
54856;BME280;40748;53.168;5.800;2023-01-26T04:49:05;102433.97;;;4.09;100.00
54856;BME280;40748;53.168;5.800;2023-01-26T04:51:34;102435.23;;;4.15;100.00
54856;BME280;40748;53.168;5.800;2023-01-26T04:54:05;102438.09000000001;;;4.20;100.00
54856;BME280;40748;53.168;5.800;2023-01-26T04:56:34;102433.58;;;4.26;100.00
54856;BME280;40748;53.168;5.800;2023-01-26T04:59:05;102433.58;;;4.29;100.00
54856;BME280;40748;53.168;5.800;2023-01-26T05:01:35;102433.09;;;4.32;100.00
54856;BME280;40748;53.168;5.800;2023-01-26T05:04:05;102433.09;;;4.36;100.00
54856;BME280;40748;53.168;5.800;2023-01-26T05:06:34;102434.56000000001;;;4.37;100.00
54856;BME280;40748;53.168;5.800;2023-01-26T05:09:04;102434.59;;;4.34;100.00
54856;BME280;40748;53.168;5.800;2023-01-26T05:11:35;102433.33;;;4.42;100.00
54856;BME280;40748;53.168;5.800;2023-01-26T05:14:05;102439.36000000002;;;4.43;100.00
54856;BME280;40748;53.168;5.800;2023-01-26T05:16:35;102440.64000000001;;;4.45;100.00
54856;BME280;40748;53.168;5.800;2023-01-26T05:19:04;102444.65;;;4.46;100.00
54856;BME280;40748;53.168;5.800;2023-01-26T05:21:35;102443.91;;;4.50;100.00
54856;BME280;40748;53.168;5.800;2023-01-26T05:24:05;102446.02;;;4.49;100.00
54856;BME280;40748;53.168;5.800;2023-01-26T05:26:35;102445.95;;;4.58;100.00
54856;BME280;40748;53.168;5.800;2023-01-26T05:29:05;102453.69;;;4.66;100.00
54856;BME280;40748;53.168;5.800;2023-01-26T05:31:34;102453.69;;;4.68;100.00
54856;BME280;40748;53.168;5.800;2023-01-26T05:34:04;102452.16;;;4.71;100.00
54856;BME280;40748;53.168;5.800;2023-01-26T05:36:34;102451.66999999998;;;4.70;100.00
54856;BME280;40748;53.168;5.800;2023-01-26T05:39:05;102449.65999999999;;;4.77;100.00
54856;BME280;40748;53.168;5.800;2023-01-26T05:41:34;102455.58000000002;;;4.81;100.00
54856;BME280;40748;53.168;5.800;2023-01-26T05:44:04;102456.98999999999;;;4.80;100.00
54856;BME280;40748;53.168;5.800;2023-01-26T05:46:34;102457.52;;;4.78;100.00
54856;BME280;40748;53.168;5.800;2023-01-26T05:49:04;102457.09999999999;;;4.77;100.00
54856;BME280;40748;53.168;5.800;2023-01-26T05:51:35;102463.85;;;4.76;100.00
54856;BME280;40748;53.168;5.800;2023-01-26T05:54:04;102463.85;;;4.73;100.00
54856;BME280;40748;53.168;5.800;2023-01-26T05:56:34;102465.64000000001;;;4.72;100.00
54856;BME280;40748;53.168;5.800;2023-01-26T06:01:34;102468.06999999999;;;4.69;100.00
54856;BME280;40748;53.168;5.800;2023-01-26T06:04:05;102469.1;;;4.72;100.00
54856;BME280;40748;53.168;5.800;2023-01-26T06:06:34;102474.52;;;4.71;100.00
54856;BME280;40748;53.168;5.800;2023-01-26T06:09:04;102475.79000000001;;;4.69;100.00
54856;BME280;40748;53.168;5.800;2023-01-26T06:14:06;102475.72;;;4.68;100.00
54856;BME280;40748;53.168;5.800;2023-01-26T06:16:34;102475.72;;;4.65;100.00
54856;BME280;40748;53.168;5.800;2023-01-26T06:19:05;102480.74999999999;;;4.61;100.00
54856;BME280;40748;53.168;5.800;2023-01-26T06:21:35;102485.63999999998;;;4.58;100.00
54856;BME280;40748;53.168;5.800;2023-01-26T06:24:05;102490.67;;;4.62;100.00
54856;BME280;40748;53.168;5.800;2023-01-26T06:26:35;102490.19;;;4.57;100.00
54856;BME280;40748;53.168;5.800;2023-01-26T06:29:05;102495.31;;;4.59;100.00
54856;BME280;40748;53.168;5.800;2023-01-26T06:31:35;102497.0;;;4.60;100.00
54856;BME280;40748;53.168;5.800;2023-01-26T06:36:35;102506.14;;;4.55;100.00
54856;BME280;40748;53.168;5.800;2023-01-26T06:39:05;102506.14;;;4.56;100.00
54856;BME280;40748;53.168;5.800;2023-01-26T06:41:34;102511.04000000001;;;4.57;100.00
54856;BME280;40748;53.168;5.800;2023-01-26T06:44:04;102512.23;;;4.55;100.00
54856;BME280;40748;53.168;5.800;2023-01-26T06:46:35;102509.38;;;4.50;100.00
54856;BME280;40748;53.168;5.800;2023-01-26T06:54:05;102516.56;;;4.47;100.00
54856;BME280;40748;53.168;5.800;2023-01-26T06:59:05;102522.6;;;4.48;100.00
54856;BME280;40748;53.168;5.800;2023-01-26T07:01:35;102525.16;;;4.45;100.00
54856;BME280;40748;53.168;5.800;2023-01-26T07:04:05;102524.51000000001;;;4.43;100.00
54856;BME280;40748;53.168;5.800;2023-01-26T07:06:35;102521.66;;;4.38;100.00
54856;BME280;40748;53.168;5.800;2023-01-26T07:09:05;102525.63;;;4.36;100.00
54856;BME280;40748;53.168;5.800;2023-01-26T07:11:35;102525.63;;;4.35;100.00
54856;BME280;40748;53.168;5.800;2023-01-26T07:14:05;102533.02;;;4.41;100.00
54856;BME280;40748;53.168;5.800;2023-01-26T07:16:35;102527.29;;;4.42;100.00
54856;BME280;40748;53.168;5.800;2023-01-26T07:19:04;102530.37;;;4.43;100.00
54856;BME280;40748;53.168;5.800;2023-01-26T07:21:34;102527.74999999999;;;4.44;100.00
54856;BME280;40748;53.168;5.800;2023-01-26T07:26:35;102539.87;;;4.43;100.00
54856;BME280;40748;53.168;5.800;2023-01-26T07:29:05;102544.53000000001;;;4.45;100.00
54856;BME280;40748;53.168;5.800;2023-01-26T07:31:35;102551.77;;;4.43;100.00
54856;BME280;40748;53.168;5.800;2023-01-26T07:34:04;102551.53;;;4.44;100.00
54856;BME280;40748;53.168;5.800;2023-01-26T07:36:35;102558.04000000001;;;4.41;100.00
54856;BME280;40748;53.168;5.800;2023-01-26T07:39:05;102558.20000000001;;;4.42;100.00
54856;BME280;40748;53.168;5.800;2023-01-26T07:41:35;102556.16;;;4.43;100.00
54856;BME280;40748;53.168;5.800;2023-01-26T07:44:08;102555.97;;;4.38;100.00
54856;BME280;40748;53.168;5.800;2023-01-26T07:46:35;102555.97;;;4.40;100.00
54856;BME280;40748;53.168;5.800;2023-01-26T07:49:05;102558.14;;;4.43;100.00
54856;BME280;40748;53.168;5.800;2023-01-26T07:51:34;102562.57;;;4.42;100.00
54856;BME280;40748;53.168;5.800;2023-01-26T07:54:05;102567.40999999999;;;4.37;100.00
54856;BME280;40748;53.168;5.800;2023-01-26T07:56:35;102572.45;;;4.29;100.00
54856;BME280;40748;53.168;5.800;2023-01-26T07:59:05;102574.93999999999;;;4.37;100.00
54856;BME280;40748;53.168;5.800;2023-01-26T08:01:35;102576.95000000001;;;4.33;100.00
54856;BME280;40748;53.168;5.800;2023-01-26T08:04:05;102576.05;;;4.41;100.00
54856;BME280;40748;53.168;5.800;2023-01-26T08:06:35;102578.16;;;4.42;100.00
54856;BME280;40748;53.168;5.800;2023-01-26T08:09:05;102578.59000000001;;;4.44;100.00
54856;BME280;40748;53.168;5.800;2023-01-26T08:11:35;102579.26999999999;;;4.49;100.00
54856;BME280;40748;53.168;5.800;2023-01-26T08:14:05;102579.93;;;4.51;100.00
54856;BME280;40748;53.168;5.800;2023-01-26T08:16:35;102578.7;;;4.55;100.00
54856;BME280;40748;53.168;5.800;2023-01-26T08:19:05;102578.93;;;4.51;100.00
54856;BME280;40748;53.168;5.800;2023-01-26T08:21:35;102578.01999999999;;;4.56;100.00
54856;BME280;40748;53.168;5.800;2023-01-26T08:24:05;102579.54;;;4.59;100.00
54856;BME280;40748;53.168;5.800;2023-01-26T08:26:35;102585.06;;;4.62;100.00
54856;BME280;40748;53.168;5.800;2023-01-26T08:29:05;102588.71999999999;;;4.61;100.00
54856;BME280;40748;53.168;5.800;2023-01-26T08:31:35;102587.55000000002;;;4.60;100.00
54856;BME280;40748;53.168;5.800;2023-01-26T08:34:05;102586.49;;;4.65;100.00
54856;BME280;40748;53.168;5.800;2023-01-26T08:36:35;102587.73000000001;;;4.72;100.00
54856;BME280;40748;53.168;5.800;2023-01-26T08:39:05;102586.66;;;4.76;100.00
54856;BME280;40748;53.168;5.800;2023-01-26T08:41:35;102581.73999999999;;;4.83;100.00
54856;BME280;40748;53.168;5.800;2023-01-26T08:44:05;102587.44999999998;;;4.80;100.00
54856;BME280;40748;53.168;5.800;2023-01-26T08:46:35;102586.34;;;4.90;100.00
54856;BME280;40748;53.168;5.800;2023-01-26T08:49:05;102594.69999999998;;;4.94;100.00
54856;BME280;40748;53.168;5.800;2023-01-26T08:51:35;102596.52;;;5.02;100.00
54856;BME280;40748;53.168;5.800;2023-01-26T08:54:05;102596.52;;;5.04;100.00
54856;BME280;40748;53.168;5.800;2023-01-26T08:56:35;102599.93;;;5.13;100.00
54856;BME280;40748;53.168;5.800;2023-01-26T08:59:06;102602.81;;;5.22;100.00
54856;BME280;40748;53.168;5.800;2023-01-26T09:01:35;102606.34;;;5.30;100.00
54856;BME280;40748;53.168;5.800;2023-01-26T09:04:05;102608.72;;;5.32;100.00
54856;BME280;40748;53.168;5.800;2023-01-26T09:06:35;102608.72;;;5.40;100.00
54856;BME280;40748;53.168;5.800;2023-01-26T09:09:05;102610.71999999999;;;5.43;100.00
54856;BME280;40748;53.168;5.800;2023-01-26T09:11:35;102612.34;;;5.48;100.00
54856;BME280;40748;53.168;5.800;2023-01-26T09:14:05;102612.68;;;5.49;100.00
54856;BME280;40748;53.168;5.800;2023-01-26T09:16:35;102611.9;;;5.46;100.00
54856;BME280;40748;53.168;5.800;2023-01-26T09:19:05;102608.53;;;5.47;100.00
54856;BME280;40748;53.168;5.800;2023-01-26T09:21:35;102613.06999999999;;;5.48;100.00
54856;BME280;40748;53.168;5.800;2023-01-26T09:24:05;102609.77;;;5.58;100.00
54856;BME280;40748;53.168;5.800;2023-01-26T09:26:35;102610.18999999999;;;5.62;100.00
54856;BME280;40748;53.168;5.800;2023-01-26T09:29:05;102610.18999999999;;;5.68;100.00
54856;BME280;40748;53.168;5.800;2023-01-26T09:31:35;102612.67;;;5.72;100.00
54856;BME280;40748;53.168;5.800;2023-01-26T09:34:05;102620.5;;;5.77;100.00
54856;BME280;40748;53.168;5.800;2023-01-26T09:36:35;102617.59;;;5.83;100.00
54856;BME280;40748;53.168;5.800;2023-01-26T09:39:05;102617.59;;;5.99;100.00
54856;BME280;40748;53.168;5.800;2023-01-26T09:41:43;102625.09999999999;;;6.10;100.00
54856;BME280;40748;53.168;5.800;2023-01-26T09:44:05;102625.83;;;6.26;100.00
54856;BME280;40748;53.168;5.800;2023-01-26T09:46:39;102624.84;;;6.35;100.00
54856;BME280;40748;53.168;5.800;2023-01-26T09:49:05;102627.59000000001;;;6.41;100.00
54856;BME280;40748;53.168;5.800;2023-01-26T09:51:35;102629.01999999999;;;6.52;100.00
54856;BME280;40748;53.168;5.800;2023-01-26T09:54:08;102625.42000000001;;;6.59;100.00
54856;BME280;40748;53.168;5.800;2023-01-26T09:56:35;102628.08;;;6.68;100.00
54856;BME280;40748;53.168;5.800;2023-01-26T09:59:05;102620.2;;;6.73;100.00
54856;BME280;40748;53.168;5.800;2023-01-26T10:01:35;102617.43;;;6.78;100.00
54856;BME280;40748;53.168;5.800;2023-01-26T10:04:08;102615.67;;;6.86;100.00
54856;BME280;40748;53.168;5.800;2023-01-26T10:06:35;102613.46;;;6.99;100.00
54856;BME280;40748;53.168;5.800;2023-01-26T10:09:06;102614.01000000001;;;7.05;100.00
54856;BME280;40748;53.168;5.800;2023-01-26T10:11:36;102618.84999999999;;;7.18;100.00
54856;BME280;40748;53.168;5.800;2023-01-26T10:14:08;102622.95999999999;;;7.26;100.00
54856;BME280;40748;53.168;5.800;2023-01-26T10:16:35;102627.44;;;7.37;100.00
54856;BME280;40748;53.168;5.800;2023-01-26T10:19:05;102630.94;;;7.45;100.00
54856;BME280;40748;53.168;5.800;2023-01-26T10:21:36;102628.73999999999;;;7.50;100.00
54856;BME280;40748;53.168;5.800;2023-01-26T10:24:05;102628.73999999999;;;7.55;100.00
54856;BME280;40748;53.168;5.800;2023-01-26T10:26:35;102628.98;;;7.51;100.00
54856;BME280;40748;53.168;5.800;2023-01-26T10:29:05;102628.98;;;7.57;100.00
54856;BME280;40748;53.168;5.800;2023-01-26T10:31:35;102630.53;;;7.51;100.00
54856;BME280;40748;53.168;5.800;2023-01-26T10:34:08;102634.13;;;7.49;100.00
54856;BME280;40748;53.168;5.800;2023-01-26T10:36:35;102637.70999999999;;;7.64;100.00
54856;BME280;40748;53.168;5.800;2023-01-26T10:39:05;102637.61;;;7.69;100.00
54856;BME280;40748;53.168;5.800;2023-01-26T10:41:35;102635.9;;;7.70;100.00
54856;BME280;40748;53.168;5.800;2023-01-26T10:46:35;102631.18;;;7.74;100.00
54856;BME280;40748;53.168;5.800;2023-01-26T10:49:12;102628.36;;;7.66;100.00
54856;BME280;40748;53.168;5.800;2023-01-26T10:51:35;102628.25;;;7.76;100.00
54856;BME280;40748;53.168;5.800;2023-01-26T10:54:11;102623.99;;;7.78;100.00
54856;BME280;40748;53.168;5.800;2023-01-26T10:56:35;102627.69;;;7.86;100.00
54856;BME280;40748;53.168;5.800;2023-01-26T10:59:05;102623.99;;;7.92;100.00
54856;BME280;40748;53.168;5.800;2023-01-26T11:04:05;102623.99;;;7.81;100.00
54856;BME280;40748;53.168;5.800;2023-01-26T11:06:35;102627.55;;;8.00;100.00
54856;BME280;40748;53.168;5.800;2023-01-26T11:09:09;102624.82;;;8.08;100.00
54856;BME280;40748;53.168;5.800;2023-01-26T11:11:35;102627.69;;;8.16;100.00
54856;BME280;40748;53.168;5.800;2023-01-26T11:14:09;102625.73999999999;;;8.20;100.00
54856;BME280;40748;53.168;5.800;2023-01-26T11:19:06;102625.94999999998;;;8.26;100.00
54856;BME280;40748;53.168;5.800;2023-01-26T11:21:35;102621.84;;;8.38;100.00
54856;BME280;40748;53.168;5.800;2023-01-26T11:24:07;102623.34000000001;;;8.45;100.00
54856;BME280;40748;53.168;5.800;2023-01-26T11:29:09;102621.81;;;8.52;100.00
54856;BME280;40748;53.168;5.800;2023-01-26T11:31:37;102616.3;;;8.65;100.00
54856;BME280;40748;53.168;5.800;2023-01-26T11:34:08;102610.12000000001;;;8.55;100.00
54856;BME280;40748;53.168;5.800;2023-01-26T11:36:37;102612.9;;;8.71;100.00
54856;BME280;40748;53.168;5.800;2023-01-26T11:39:07;102612.9;;;8.75;100.00
54856;BME280;40748;53.168;5.800;2023-01-26T11:41:39;102611.28000000001;;;8.74;100.00
54856;BME280;40748;53.168;5.800;2023-01-26T11:44:10;102605.74999999999;;;8.62;100.00
54856;BME280;40748;53.168;5.800;2023-01-26T11:46:38;102605.86;;;8.87;100.00
54856;BME280;40748;53.168;5.800;2023-01-26T11:49:08;102605.86;;;9.00;100.00
54856;BME280;40748;53.168;5.800;2023-01-26T11:51:38;102597.88;;;8.84;100.00
54856;BME280;40748;53.168;5.800;2023-01-26T11:54:10;102591.60999999999;;;8.97;100.00
54856;BME280;40748;53.168;5.800;2023-01-26T11:56:37;102598.20999999999;;;9.05;100.00
54856;BME280;40748;53.168;5.800;2023-01-26T11:59:05;102595.62000000001;;;8.97;100.00
54856;BME280;40748;53.168;5.800;2023-01-26T12:01:37;102595.47;;;8.92;100.00
54856;BME280;40748;53.168;5.800;2023-01-26T12:04:05;102585.25;;;8.89;100.00
54856;BME280;40748;53.168;5.800;2023-01-26T12:06:35;102587.65000000001;;;9.41;100.00
54856;BME280;40748;53.168;5.800;2023-01-26T12:09:05;102590.54000000001;;;9.37;100.00
54856;BME280;40748;53.168;5.800;2023-01-26T12:11:36;102589.55;;;9.50;100.00
54856;BME280;40748;53.168;5.800;2023-01-26T12:14:07;102590.77;;;9.64;100.00
54856;BME280;40748;53.168;5.800;2023-01-26T12:19:08;102588.95999999999;;;9.47;100.00
54856;BME280;40748;53.168;5.800;2023-01-26T12:21:35;102581.90999999999;;;9.53;100.00
54856;BME280;40748;53.168;5.800;2023-01-26T12:24:05;102582.06999999999;;;9.35;100.00
54856;BME280;40748;53.168;5.800;2023-01-26T12:26:36;102580.90999999999;;;9.07;100.00
54856;BME280;40748;53.168;5.800;2023-01-26T12:29:05;102580.40000000001;;;9.26;100.00
54856;BME280;40748;53.168;5.800;2023-01-26T12:31:37;102573.12;;;9.24;100.00
54856;BME280;40748;53.168;5.800;2023-01-26T12:34:07;102573.39;;;9.31;100.00
54856;BME280;40748;53.168;5.800;2023-01-26T12:36:38;102573.39;;;9.61;100.00
54856;BME280;40748;53.168;5.800;2023-01-26T12:39:07;102558.81;;;9.84;100.00
54856;BME280;40748;53.168;5.800;2023-01-26T12:41:37;102558.81;;;10.20;100.00
54856;BME280;40748;53.168;5.800;2023-01-26T12:44:09;102554.15000000001;;;10.46;100.00
54856;BME280;40748;53.168;5.800;2023-01-26T12:46:36;102552.14000000001;;;10.35;100.00
54856;BME280;40748;53.168;5.800;2023-01-26T12:49:05;102549.37;;;10.32;100.00
54856;BME280;40748;53.168;5.800;2023-01-26T12:51:35;102543.01000000001;;;10.12;100.00
54856;BME280;40748;53.168;5.800;2023-01-26T12:54:05;102543.01000000001;;;9.76;100.00
54856;BME280;40748;53.168;5.800;2023-01-26T12:56:36;102545.37;;;9.80;100.00
54856;BME280;40748;53.168;5.800;2023-01-26T12:59:05;102542.72;;;10.06;100.00
54856;BME280;40748;53.168;5.800;2023-01-26T13:01:37;102540.91;;;10.04;100.00
54856;BME280;40748;53.168;5.800;2023-01-26T13:04:06;102546.85999999999;;;9.85;100.00
54856;BME280;40748;53.168;5.800;2023-01-26T13:06:35;102542.60999999999;;;9.97;100.00
54856;BME280;40748;53.168;5.800;2023-01-26T13:11:43;102530.87000000001;;;9.99;100.00
54856;BME280;40748;53.168;5.800;2023-01-26T13:14:18;102530.82999999999;;;10.04;100.00
54856;BME280;40748;53.168;5.800;2023-01-26T13:16:35;102537.06;;;10.22;100.00
54856;BME280;40748;53.168;5.800;2023-01-26T13:19:07;102529.68000000001;;;10.44;100.00